sensor_id;sensor_type;location;lat;lon;timestamp;pressure;altitude;pressure_sealevel;temperature;humidity
41312;BME280;27061;41.648;24.568;2023-01-28T00:01:08;84766.28;;;4.09;88.46
41312;BME280;27061;41.648;24.568;2023-01-28T00:03:36;84769.03;;;4.05;87.33
41312;BME280;27061;41.648;24.568;2023-01-28T00:06:06;84744.63;;;3.79;88.64
41312;BME280;27061;41.648;24.568;2023-01-28T00:08:34;84768.41;;;4.00;89.37
41312;BME280;27061;41.648;24.568;2023-01-28T00:11:03;84775.88;;;4.06;88.25
41312;BME280;27061;41.648;24.568;2023-01-28T00:13:31;84774.50;;;4.07;87.86
41312;BME280;27061;41.648;24.568;2023-01-28T00:16:01;84720.09;;;3.64;88.30
41312;BME280;27061;41.648;24.568;2023-01-28T00:18:53;84770.47;;;3.98;89.36
41312;BME280;27061;41.648;24.568;2023-01-28T00:21:21;84756.84;;;3.90;89.09
41312;BME280;27061;41.648;24.568;2023-01-28T00:23:53;84760.91;;;3.95;88.19
41312;BME280;27061;41.648;24.568;2023-01-28T00:26:22;84724.25;;;3.57;88.56
41312;BME280;27061;41.648;24.568;2023-01-28T00:28:50;84774.63;;;3.93;88.01
41312;BME280;27061;41.648;24.568;2023-01-28T00:44:15;84748.88;;;3.59;83.91
41312;BME280;27061;41.648;24.568;2023-01-28T00:46:42;84750.19;;;3.62;84.84
41312;BME280;27061;41.648;24.568;2023-01-28T00:52:04;84762.56;;;3.55;82.89
41312;BME280;27061;41.648;24.568;2023-01-28T00:54:31;84678.13;;;2.99;84.10
41312;BME280;27061;41.648;24.568;2023-01-28T00:56:58;84732.56;;;3.41;83.02
41312;BME280;27061;41.648;24.568;2023-01-28T00:59:25;84804.81;;;3.83;85.58
41312;BME280;27061;41.648;24.568;2023-01-28T02:24:36;84839.25;;;3.47;85.69
41312;BME280;27061;41.648;24.568;2023-01-28T02:33:10;84816.19;;;3.06;84.08
41312;BME280;27061;41.648;24.568;2023-01-28T02:35:48;84843.41;;;3.34;84.29
41312;BME280;27061;41.648;24.568;2023-01-28T02:38:27;84798.41;;;3.05;85.65
41312;BME280;27061;41.648;24.568;2023-01-28T02:41:02;84822.25;;;3.18;86.28
41312;BME280;27061;41.648;24.568;2023-01-28T02:43:34;84844.75;;;3.35;84.50
41312;BME280;27061;41.648;24.568;2023-01-28T02:48:55;84822.28;;;3.12;84.05
41312;BME280;27061;41.648;24.568;2023-01-28T03:02:45;84819.63;;;2.92;85.29
41312;BME280;27061;41.648;24.568;2023-01-28T03:05:34;84773.94;;;2.66;83.61
41312;BME280;27061;41.648;24.568;2023-01-28T03:08:05;84793.06;;;2.74;83.66
41312;BME280;27061;41.648;24.568;2023-01-28T03:10:56;84855.78;;;3.17;84.91
41312;BME280;27061;41.648;24.568;2023-01-28T03:13:44;84855.75;;;3.19;84.58
41312;BME280;27061;41.648;24.568;2023-01-28T03:16:32;84807.38;;;2.83;84.66
41312;BME280;27061;41.648;24.568;2023-01-28T03:19:19;84849.00;;;3.02;80.97
41312;BME280;27061;41.648;24.568;2023-01-28T03:22:06;84847.63;;;3.03;82.83
41312;BME280;27061;41.648;24.568;2023-01-28T03:24:53;84823.09;;;2.82;84.25
41312;BME280;27061;41.648;24.568;2023-01-28T03:28:01;84842.16;;;3.03;83.57
41312;BME280;27061;41.648;24.568;2023-01-28T03:30:57;84806.72;;;2.68;83.34
41312;BME280;27061;41.648;24.568;2023-01-28T03:33:52;84809.47;;;2.68;83.33
41312;BME280;27061;41.648;24.568;2023-01-28T03:36:39;84859.25;;;3.07;83.98
41312;BME280;27061;41.648;24.568;2023-01-28T03:39:30;84814.91;;;2.70;84.75
41312;BME280;27061;41.648;24.568;2023-01-28T03:42:03;84859.94;;;3.06;84.98
41312;BME280;27061;41.648;24.568;2023-01-28T03:44:32;84804.69;;;2.63;84.96
41312;BME280;27061;41.648;24.568;2023-01-28T03:47:27;84835.38;;;2.77;87.02
41312;BME280;27061;41.648;24.568;2023-01-28T03:49:56;84831.28;;;2.80;85.58
41312;BME280;27061;41.648;24.568;2023-01-28T03:52:29;84831.31;;;2.72;85.08
41312;BME280;27061;41.648;24.568;2023-01-28T03:55:36;84834.72;;;2.77;84.25
41312;BME280;27061;41.648;24.568;2023-01-28T03:58:04;84836.75;;;2.80;84.27
41312;BME280;27061;41.648;24.568;2023-01-28T04:00:34;84867.44;;;2.99;85.17
41312;BME280;27061;41.648;24.568;2023-01-28T04:03:15;84867.44;;;3.03;85.48
41312;BME280;27061;41.648;24.568;2023-01-28T04:06:01;84876.34;;;3.02;86.00
41312;BME280;27061;41.648;24.568;2023-01-28T04:08:50;84873.59;;;3.00;84.97
41312;BME280;27061;41.648;24.568;2023-01-28T04:11:51;84828.63;;;2.62;84.90
41312;BME280;27061;41.648;24.568;2023-01-28T04:14:26;84780.88;;;2.31;85.11
41312;BME280;27061;41.648;24.568;2023-01-28T04:17:07;84833.38;;;2.68;84.57
41312;BME280;27061;41.648;24.568;2023-01-28T04:19:37;84880.44;;;3.01;84.58
41312;BME280;27061;41.648;24.568;2023-01-28T04:22:07;84874.97;;;3.05;84.19
41312;BME280;27061;41.648;24.568;2023-01-28T04:24:35;84880.44;;;3.01;83.71
41312;BME280;27061;41.648;24.568;2023-01-28T04:27:03;84821.78;;;2.61;83.32
41312;BME280;27061;41.648;24.568;2023-01-28T04:29:30;84857.25;;;2.81;82.20
41312;BME280;27061;41.648;24.568;2023-01-28T04:32:08;84875.03;;;2.84;82.73
41312;BME280;27061;41.648;24.568;2023-01-28T04:35:06;84845.00;;;2.62;83.98
41312;BME280;27061;41.648;24.568;2023-01-28T04:37:51;84881.84;;;2.87;84.16
41312;BME280;27061;41.648;24.568;2023-01-28T04:40:39;84887.31;;;2.83;85.09
41312;BME280;27061;41.648;24.568;2023-01-28T04:43:21;84855.94;;;2.58;84.81
41312;BME280;27061;41.648;24.568;2023-01-28T04:45:52;84909.16;;;2.96;84.62
41312;BME280;27061;41.648;24.568;2023-01-28T04:48:40;84896.88;;;2.86;84.43
41312;BME280;27061;41.648;24.568;2023-01-28T04:51:16;84895.53;;;2.81;84.03
41312;BME280;27061;41.648;24.568;2023-01-28T04:53:52;84869.59;;;2.56;83.62
41312;BME280;27061;41.648;24.568;2023-01-28T04:56:28;84899.63;;;2.78;82.27
41312;BME280;27061;41.648;24.568;2023-01-28T04:58:56;84922.84;;;2.91;83.17
41312;BME280;27061;41.648;24.568;2023-01-28T05:01:23;84919.41;;;2.93;83.88
41312;BME280;27061;41.648;24.568;2023-01-28T05:03:51;84876.44;;;2.57;84.55
41312;BME280;27061;41.648;24.568;2023-01-28T05:06:26;84920.13;;;2.85;84.52
41312;BME280;27061;41.648;24.568;2023-01-28T05:08:55;84916.69;;;2.77;83.58
41312;BME280;27061;41.648;24.568;2023-01-28T05:11:23;84905.09;;;2.68;84.32
41312;BME280;27061;41.648;24.568;2023-01-28T05:13:56;84899.66;;;2.64;84.50
41312;BME280;27061;41.648;24.568;2023-01-28T05:16:27;84856.63;;;2.34;84.22
41312;BME280;27061;41.648;24.568;2023-01-28T05:18:54;84921.50;;;2.84;84.31
41312;BME280;27061;41.648;24.568;2023-01-28T05:21:22;84899.66;;;2.62;84.29
41312;BME280;27061;41.648;24.568;2023-01-28T05:23:56;84905.13;;;2.62;85.08
41312;BME280;27061;41.648;24.568;2023-01-28T05:26:23;84928.31;;;2.77;85.90
41312;BME280;27061;41.648;24.568;2023-01-28T05:28:51;84941.97;;;2.77;86.11
41312;BME280;27061;41.648;24.568;2023-01-28T05:31:18;84902.38;;;2.56;85.95
41312;BME280;27061;41.648;24.568;2023-01-28T05:33:45;84903.75;;;2.53;85.89
41312;BME280;27061;41.648;24.568;2023-01-28T05:36:13;84909.22;;;2.57;85.97
41312;BME280;27061;41.648;24.568;2023-01-28T05:38:40;84908.53;;;2.61;86.38
41312;BME280;27061;41.648;24.568;2023-01-28T05:41:07;84873.72;;;2.31;85.92
41312;BME280;27061;41.648;24.568;2023-01-28T05:43:35;84907.16;;;2.45;86.00
41312;BME280;27061;41.648;24.568;2023-01-28T05:46:26;84911.28;;;2.50;86.25
41312;BME280;27061;41.648;24.568;2023-01-28T05:49:06;84944.72;;;2.77;86.40
41312;BME280;27061;41.648;24.568;2023-01-28T05:52:10;84928.34;;;2.59;86.44
41312;BME280;27061;41.648;24.568;2023-01-28T05:54:37;84939.25;;;2.67;85.54
41312;BME280;27061;41.648;24.568;2023-01-28T05:57:05;84924.94;;;2.58;85.64
41312;BME280;27061;41.648;24.568;2023-01-28T05:59:32;84901.72;;;2.35;85.67
41312;BME280;27061;41.648;24.568;2023-01-28T06:02:00;84925.63;;;2.51;85.97
41312;BME280;27061;41.648;24.568;2023-01-28T06:04:27;84966.59;;;2.79;85.58
41312;BME280;27061;41.648;24.568;2023-01-28T06:06:54;84957.03;;;2.70;85.51
41312;BME280;27061;41.648;24.568;2023-01-28T06:09:21;84964.53;;;2.88;84.35
41312;BME280;27061;41.648;24.568;2023-01-28T06:11:49;84970.69;;;2.90;83.21
41312;BME280;27061;41.648;24.568;2023-01-28T06:14:17;84970.69;;;2.84;82.54
41312;BME280;27061;41.648;24.568;2023-01-28T06:17:02;84970.00;;;2.82;81.94
41312;BME280;27061;41.648;24.568;2023-01-28T06:20:05;84976.13;;;2.86;82.21
41312;BME280;27061;41.648;24.568;2023-01-28T06:22:36;84971.38;;;2.75;83.11
41312;BME280;27061;41.648;24.568;2023-01-28T06:25:03;84957.03;;;2.56;83.63
41312;BME280;27061;41.648;24.568;2023-01-28T06:27:31;84953.63;;;2.57;84.25
41312;BME280;27061;41.648;24.568;2023-01-28T06:29:58;84948.84;;;2.54;84.25
41312;BME280;27061;41.648;24.568;2023-01-28T06:32:25;84925.59;;;2.22;85.60
41312;BME280;27061;41.648;24.568;2023-01-28T06:34:52;84902.38;;;2.03;85.98
41312;BME280;27061;41.648;24.568;2023-01-28T06:37:20;84924.91;;;2.14;86.13
41312;BME280;27061;41.648;24.568;2023-01-28T06:39:47;84950.88;;;2.49;85.46
41312;BME280;27061;41.648;24.568;2023-01-28T06:42:14;84962.50;;;2.56;84.41
41312;BME280;27061;41.648;24.568;2023-01-28T06:44:40;84931.06;;;2.45;84.58
41312;BME280;27061;41.648;24.568;2023-01-28T06:47:08;84993.91;;;2.89;84.45
41312;BME280;27061;41.648;24.568;2023-01-28T06:49:36;84952.94;;;2.49;84.58
41312;BME280;27061;41.648;24.568;2023-01-28T06:52:03;84959.75;;;2.50;84.89
41312;BME280;27061;41.648;24.568;2023-01-28T06:54:30;84989.84;;;2.84;85.43
41312;BME280;27061;41.648;24.568;2023-01-28T06:56:58;84946.09;;;2.36;85.76
41312;BME280;27061;41.648;24.568;2023-01-28T06:59:25;84947.47;;;2.41;85.57
41312;BME280;27061;41.648;24.568;2023-01-28T07:01:52;84995.97;;;2.81;85.34
41312;BME280;27061;41.648;24.568;2023-01-28T07:04:19;85013.06;;;2.93;84.88
41312;BME280;27061;41.648;24.568;2023-01-28T07:06:46;85000.06;;;2.80;84.74
41312;BME280;27061;41.648;24.568;2023-01-28T07:09:14;85010.31;;;2.91;84.45
41312;BME280;27061;41.648;24.568;2023-01-28T07:11:41;85005.53;;;2.92;84.50
41312;BME280;27061;41.648;24.568;2023-01-28T07:14:08;84976.16;;;2.62;84.13
41312;BME280;27061;41.648;24.568;2023-01-28T07:16:35;85027.41;;;2.96;83.47
41312;BME280;27061;41.648;24.568;2023-01-28T07:19:02;84973.44;;;2.60;83.78
41312;BME280;27061;41.648;24.568;2023-01-28T07:21:29;85034.94;;;3.02;83.75
41312;BME280;27061;41.648;24.568;2023-01-28T07:23:56;84973.44;;;2.54;83.13
41312;BME280;27061;41.648;24.568;2023-01-28T07:26:23;84978.91;;;2.54;82.67
41312;BME280;27061;41.648;24.568;2023-01-28T07:28:50;85033.53;;;3.09;82.74
41312;BME280;27061;41.648;24.568;2023-01-28T07:31:17;84984.34;;;2.60;82.51
41312;BME280;27061;41.648;24.568;2023-01-28T07:33:44;85045.84;;;3.02;82.66
41312;BME280;27061;41.648;24.568;2023-01-28T07:36:11;85031.50;;;2.95;82.84
41312;BME280;27061;41.648;24.568;2023-01-28T07:38:38;85013.75;;;2.82;83.06
41312;BME280;27061;41.648;24.568;2023-01-28T07:41:05;85049.97;;;3.13;83.11
41312;BME280;27061;41.648;24.568;2023-01-28T07:43:33;85019.88;;;2.90;83.52
41312;BME280;27061;41.648;24.568;2023-01-28T07:46:00;85050.66;;;3.13;83.29
41312;BME280;27061;41.648;24.568;2023-01-28T07:48:28;85043.13;;;3.10;83.28
41312;BME280;27061;41.648;24.568;2023-01-28T07:50:57;84998.69;;;2.77;82.98
41312;BME280;27061;41.648;24.568;2023-01-28T07:53:25;85044.50;;;3.01;82.62
41312;BME280;27061;41.648;24.568;2023-01-28T07:55:58;85060.88;;;3.21;82.45
41312;BME280;27061;41.648;24.568;2023-01-28T07:58:25;85040.41;;;3.06;82.42
41312;BME280;27061;41.648;24.568;2023-01-28T08:00:55;85068.41;;;3.20;82.21
41312;BME280;27061;41.648;24.568;2023-01-28T08:03:22;85032.88;;;2.98;80.96
41312;BME280;27061;41.648;24.568;2023-01-28T08:05:51;85052.69;;;3.11;81.20
41312;BME280;27061;41.648;24.568;2023-01-28T08:08:19;85029.44;;;2.89;81.08
41312;BME280;27061;41.648;24.568;2023-01-28T08:10:46;85049.97;;;3.05;80.84
41312;BME280;27061;41.648;24.568;2023-01-28T08:13:14;85074.56;;;3.23;80.89
41312;BME280;27061;41.648;24.568;2023-01-28T08:15:41;85072.53;;;3.25;80.49
41312;BME280;27061;41.648;24.568;2023-01-28T08:18:11;85081.41;;;3.24;80.55
41312;BME280;27061;41.648;24.568;2023-01-28T08:20:39;85036.28;;;3.01;80.34
41312;BME280;27061;41.648;24.568;2023-01-28T08:23:10;85072.50;;;3.29;80.60
41312;BME280;27061;41.648;24.568;2023-01-28T08:25:37;85084.13;;;3.32;79.99
41312;BME280;27061;41.648;24.568;2023-01-28T08:28:06;85077.31;;;3.25;80.35
41312;BME280;27061;41.648;24.568;2023-01-28T08:30:33;85092.34;;;3.32;79.67
41312;BME280;27061;41.648;24.568;2023-01-28T08:33:01;85088.25;;;3.33;79.89
41312;BME280;27061;41.648;24.568;2023-01-28T08:35:28;85043.13;;;3.04;79.95
41312;BME280;27061;41.648;24.568;2023-01-28T08:37:58;85090.97;;;3.31;80.07
41312;BME280;27061;41.648;24.568;2023-01-28T08:40:26;85044.50;;;2.94;80.22
41312;BME280;27061;41.648;24.568;2023-01-28T08:42:54;85011.69;;;2.60;79.72
41312;BME280;27061;41.648;24.568;2023-01-28T08:45:22;85096.44;;;3.39;80.12
41312;BME280;27061;41.648;24.568;2023-01-28T08:48:02;85069.09;;;3.15;80.13
41312;BME280;27061;41.648;24.568;2023-01-28T08:50:32;85093.72;;;3.37;79.94
41312;BME280;27061;41.648;24.568;2023-01-28T08:53:02;85093.72;;;3.37;80.33
41312;BME280;27061;41.648;24.568;2023-01-28T08:55:30;85061.59;;;3.13;80.17
41312;BME280;27061;41.648;24.568;2023-01-28T08:58:01;85080.03;;;3.29;79.64
41312;BME280;27061;41.648;24.568;2023-01-28T09:00:29;85093.72;;;3.45;79.97
41312;BME280;27061;41.648;24.568;2023-01-28T09:02:56;85045.84;;;3.12;79.40
41312;BME280;27061;41.648;24.568;2023-01-28T09:05:23;85044.50;;;3.11;78.81
41312;BME280;27061;41.648;24.568;2023-01-28T09:07:51;85083.44;;;3.40;79.27
41312;BME280;27061;41.648;24.568;2023-01-28T09:10:18;85058.16;;;3.17;78.16
41312;BME280;27061;41.648;24.568;2023-01-28T09:12:48;85103.28;;;3.48;76.71
41312;BME280;27061;41.648;24.568;2023-01-28T09:15:16;85069.78;;;3.29;77.23
41312;BME280;27061;41.648;24.568;2023-01-28T09:17:43;85103.28;;;3.54;77.87
41312;BME280;27061;41.648;24.568;2023-01-28T09:20:10;85077.28;;;3.31;78.22
41312;BME280;27061;41.648;24.568;2023-01-28T09:22:39;85097.81;;;3.52;78.77
41312;BME280;27061;41.648;24.568;2023-01-28T09:25:06;85062.25;;;3.22;78.74
41312;BME280;27061;41.648;24.568;2023-01-28T09:27:33;85074.56;;;3.35;77.94
41312;BME280;27061;41.648;24.568;2023-01-28T09:30:00;85034.22;;;3.11;76.74
41312;BME280;27061;41.648;24.568;2023-01-28T09:32:27;85082.09;;;3.49;78.35
41312;BME280;27061;41.648;24.568;2023-01-28T09:34:54;85098.50;;;3.59;78.47
41312;BME280;27061;41.648;24.568;2023-01-28T09:37:21;85060.19;;;3.20;77.16
41312;BME280;27061;41.648;24.568;2023-01-28T09:39:48;85077.31;;;3.37;76.99
41312;BME280;27061;41.648;24.568;2023-01-28T09:44:56;85093.00;;;3.57;74.39
41312;BME280;27061;41.648;24.568;2023-01-28T09:47:26;85103.97;;;3.41;74.15
41312;BME280;27061;41.648;24.568;2023-01-28T09:49:57;85048.59;;;2.93;75.44
41312;BME280;27061;41.648;24.568;2023-01-28T09:52:26;85074.56;;;3.23;76.44
41312;BME280;27061;41.648;24.568;2023-01-28T09:55:03;85103.97;;;3.45;76.44
41312;BME280;27061;41.648;24.568;2023-01-28T09:57:41;85093.72;;;3.33;77.21
41312;BME280;27061;41.648;24.568;2023-01-28T10:00:21;85073.88;;;3.22;77.70
41312;BME280;27061;41.648;24.568;2023-01-28T10:03:00;85095.06;;;3.42;76.81
41312;BME280;27061;41.648;24.568;2023-01-28T10:13:42;85092.34;;;3.40;78.47
41312;BME280;27061;41.648;24.568;2023-01-28T10:16:40;85090.97;;;3.45;79.13
41312;BME280;27061;41.648;24.568;2023-01-28T10:19:14;85090.97;;;3.49;78.86
41312;BME280;27061;41.648;24.568;2023-01-28T10:22:17;85067.72;;;3.32;78.85
41312;BME280;27061;41.648;24.568;2023-01-28T10:24:51;85042.44;;;3.11;79.26
41312;BME280;27061;41.648;24.568;2023-01-28T10:27:22;85094.41;;;3.48;79.81
41312;BME280;27061;41.648;24.568;2023-01-28T10:29:50;84989.81;;;2.76;77.16
41312;BME280;27061;41.648;24.568;2023-01-28T10:32:40;85090.97;;;3.41;77.55
41312;BME280;27061;41.648;24.568;2023-01-28T10:35:10;85103.28;;;3.50;77.67
41312;BME280;27061;41.648;24.568;2023-01-28T10:37:39;85094.38;;;3.44;77.77
41312;BME280;27061;41.648;24.568;2023-01-28T10:40:11;85093.72;;;3.47;76.14
41312;BME280;27061;41.648;24.568;2023-01-28T10:42:39;85094.38;;;3.29;75.19
41312;BME280;27061;41.648;24.568;2023-01-28T10:45:20;85066.38;;;3.05;75.35
41312;BME280;27061;41.648;24.568;2023-01-28T10:50:30;85079.34;;;3.18;76.22
41312;BME280;27061;41.648;24.568;2023-01-28T10:53:01;85095.09;;;3.34;74.82
41312;BME280;27061;41.648;24.568;2023-01-28T10:55:31;85062.25;;;3.10;75.13
41312;BME280;27061;41.648;24.568;2023-01-28T10:58:03;85073.22;;;3.06;73.76
41312;BME280;27061;41.648;24.568;2023-01-28T11:00:35;85104.66;;;3.25;75.15
41312;BME280;27061;41.648;24.568;2023-01-28T11:03:03;85040.41;;;2.85;75.92
41312;BME280;27061;41.648;24.568;2023-01-28T11:05:30;85066.34;;;3.09;76.96
41312;BME280;27061;41.648;24.568;2023-01-28T11:08:08;85069.09;;;2.99;78.38
41312;BME280;27061;41.648;24.568;2023-01-28T11:10:38;85102.59;;;3.31;79.15
41312;BME280;27061;41.648;24.568;2023-01-28T11:13:23;85065.69;;;3.00;79.20
41312;BME280;27061;41.648;24.568;2023-01-28T11:18:34;85111.50;;;3.34;78.42
41312;BME280;27061;41.648;24.568;2023-01-28T11:21:04;85111.50;;;3.38;78.43
41312;BME280;27061;41.648;24.568;2023-01-28T11:24:00;85036.31;;;2.94;78.42
41312;BME280;27061;41.648;24.568;2023-01-28T11:26:31;85075.94;;;3.20;78.50
41312;BME280;27061;41.648;24.568;2023-01-28T11:28:58;85104.66;;;3.45;77.99
41312;BME280;27061;41.648;24.568;2023-01-28T11:31:26;85111.50;;;3.42;76.58
41312;BME280;27061;41.648;24.568;2023-01-28T11:33:59;85112.84;;;3.39;76.48
41312;BME280;27061;41.648;24.568;2023-01-28T11:36:29;85104.66;;;3.45;76.73
41312;BME280;27061;41.648;24.568;2023-01-28T11:38:58;85107.38;;;3.43;77.21
41312;BME280;27061;41.648;24.568;2023-01-28T11:41:36;85110.81;;;3.46;76.75
41312;BME280;27061;41.648;24.568;2023-01-28T11:44:19;85100.53;;;3.30;74.24
41312;BME280;27061;41.648;24.568;2023-01-28T11:58:08;85108.78;;;3.38;77.27
41312;BME280;27061;41.648;24.568;2023-01-28T12:09:27;85114.25;;;3.36;76.92
41312;BME280;27061;41.648;24.568;2023-01-28T12:12:39;85112.84;;;3.29;76.30
41312;BME280;27061;41.648;24.568;2023-01-28T12:20:45;85121.75;;;3.34;77.23
41312;BME280;27061;41.648;24.568;2023-01-28T12:34:44;85093.72;;;2.97;73.72
41312;BME280;27061;41.648;24.568;2023-01-28T12:42:54;85119.00;;;2.95;74.88
41312;BME280;27061;41.648;24.568;2023-01-28T12:45:40;85034.16;;;2.18;75.74
41312;BME280;27061;41.648;24.568;2023-01-28T12:48:18;85111.47;;;2.81;76.29
41312;BME280;27061;41.648;24.568;2023-01-28T12:50:51;85112.13;;;2.78;76.50
41312;BME280;27061;41.648;24.568;2023-01-28T12:53:26;85142.94;;;3.03;76.77
41312;BME280;27061;41.648;24.568;2023-01-28T12:56:04;85058.78;;;2.32;77.87
41312;BME280;27061;41.648;24.568;2023-01-28T12:58:39;85116.22;;;2.77;77.56
41312;BME280;27061;41.648;24.568;2023-01-28T13:01:17;85047.16;;;2.32;76.72
41312;BME280;27061;41.648;24.568;2023-01-28T13:04:03;85145.66;;;3.01;76.72
41312;BME280;27061;41.648;24.568;2023-01-28T13:06:37;85151.13;;;2.99;77.87
41312;BME280;27061;41.648;24.568;2023-01-28T13:09:26;85144.28;;;3.08;77.63
41312;BME280;27061;41.648;24.568;2023-01-28T13:11:57;85148.41;;;3.11;76.69
41312;BME280;27061;41.648;24.568;2023-01-28T13:14:31;85127.19;;;2.91;76.41
41312;BME280;27061;41.648;24.568;2023-01-28T13:17:23;85102.56;;;2.75;77.29
41312;BME280;27061;41.648;24.568;2023-01-28T13:19:50;85131.97;;;2.92;77.11
41312;BME280;27061;41.648;24.568;2023-01-28T13:22:34;85160.03;;;3.09;77.09
41312;BME280;27061;41.648;24.568;2023-01-28T13:25:23;85121.72;;;2.85;77.74
41312;BME280;27061;41.648;24.568;2023-01-28T13:28:02;85136.78;;;2.96;77.95
41312;BME280;27061;41.648;24.568;2023-01-28T13:30:47;85152.50;;;3.08;77.63
41312;BME280;27061;41.648;24.568;2023-01-28T13:33:28;85155.25;;;3.14;77.15
41312;BME280;27061;41.648;24.568;2023-01-28T13:35:55;85163.44;;;3.10;76.11
41312;BME280;27061;41.648;24.568;2023-01-28T13:38:23;85084.78;;;2.57;76.58
41312;BME280;27061;41.648;24.568;2023-01-28T13:40:59;85114.19;;;2.71;76.62
41312;BME280;27061;41.648;24.568;2023-01-28T13:45:56;85153.19;;;2.96;77.52
41312;BME280;27061;41.648;24.568;2023-01-28T13:48:49;85168.91;;;3.18;76.65
41312;BME280;27061;41.648;24.568;2023-01-28T13:51:34;85137.44;;;2.92;76.81
41312;BME280;27061;41.648;24.568;2023-01-28T13:54:06;85166.16;;;3.08;76.41
41312;BME280;27061;41.648;24.568;2023-01-28T14:19:21;85177.75;;;2.82;76.74
41312;BME280;27061;41.648;24.568;2023-01-28T14:21:52;85133.91;;;2.45;76.97
41312;BME280;27061;41.648;24.568;2023-01-28T14:24:19;85197.59;;;2.84;77.11
41312;BME280;27061;41.648;24.568;2023-01-28T14:26:56;85198.97;;;2.85;77.97
41312;BME280;27061;41.648;24.568;2023-01-28T14:30:29;85208.50;;;2.88;77.86
41312;BME280;27061;41.648;24.568;2023-01-28T14:32:44;85205.09;;;2.88;77.53
41312;BME280;27061;41.648;24.568;2023-01-28T14:35:18;85207.16;;;2.89;77.71
41312;BME280;27061;41.648;24.568;2023-01-28T14:37:50;85201.69;;;2.87;77.99
41312;BME280;27061;41.648;24.568;2023-01-28T14:40:18;85162.63;;;2.52;78.10
41312;BME280;27061;41.648;24.568;2023-01-28T14:42:49;85205.75;;;2.78;77.81
41312;BME280;27061;41.648;24.568;2023-01-28T14:48:24;85218.75;;;2.88;78.46
41312;BME280;27061;41.648;24.568;2023-01-28T14:53:41;85220.81;;;2.85;78.61
41312;BME280;27061;41.648;24.568;2023-01-28T14:58:53;85182.44;;;2.53;78.58
41312;BME280;27061;41.648;24.568;2023-01-28T15:01:25;85227.63;;;2.86;78.03
41312;BME280;27061;41.648;24.568;2023-01-28T15:03:53;85191.28;;;2.47;77.42
41312;BME280;27061;41.648;24.568;2023-01-28T15:06:23;85189.28;;;2.54;77.73
41312;BME280;27061;41.648;24.568;2023-01-28T15:08:52;85232.44;;;2.86;77.70
41312;BME280;27061;41.648;24.568;2023-01-28T15:11:23;85200.91;;;2.61;77.91
41312;BME280;27061;41.648;24.568;2023-01-28T15:13:55;85240.63;;;2.84;77.70
41312;BME280;27061;41.648;24.568;2023-01-28T15:16:25;85231.72;;;2.73;77.71
41312;BME280;27061;41.648;24.568;2023-01-28T15:18:59;85239.25;;;2.83;77.78
41312;BME280;27061;41.648;24.568;2023-01-28T15:21:28;85239.91;;;2.77;77.03
41312;BME280;27061;41.648;24.568;2023-01-28T15:23:57;85237.19;;;2.79;77.30
41312;BME280;27061;41.648;24.568;2023-01-28T15:26:32;85242.66;;;2.81;77.00
41312;BME280;27061;41.648;24.568;2023-01-28T15:29:02;85222.75;;;2.58;77.25
41312;BME280;27061;41.648;24.568;2023-01-28T15:31:32;85245.41;;;2.79;77.14
41312;BME280;27061;41.648;24.568;2023-01-28T15:34:01;85248.13;;;2.77;77.18
41312;BME280;27061;41.648;24.568;2023-01-28T15:36:29;85215.19;;;2.45;76.45
41312;BME280;27061;41.648;24.568;2023-01-28T15:38:57;85210.38;;;2.39;76.77
41312;BME280;27061;41.648;24.568;2023-01-28T15:41:31;85250.13;;;2.67;77.25
41312;BME280;27061;41.648;24.568;2023-01-28T15:43:59;85253.53;;;2.61;76.69
41312;BME280;27061;41.648;24.568;2023-01-28T15:46:27;85209.66;;;2.29;77.19
41312;BME280;27061;41.648;24.568;2023-01-28T15:48:59;85262.44;;;2.68;77.64
41312;BME280;27061;41.648;24.568;2023-01-28T15:51:31;85216.50;;;2.32;77.46
41312;BME280;27061;41.648;24.568;2023-01-28T15:54:03;85250.75;;;2.53;77.57
41312;BME280;27061;41.648;24.568;2023-01-28T15:56:31;85242.50;;;2.43;77.32
41312;BME280;27061;41.648;24.568;2023-01-28T15:59:21;85268.56;;;2.62;77.54
41312;BME280;27061;41.648;24.568;2023-01-28T16:01:50;85287.66;;;2.58;77.06
41312;BME280;27061;41.648;24.568;2023-01-28T16:04:25;85252.72;;;2.36;77.04
41312;BME280;27061;41.648;24.568;2023-01-28T16:06:54;85249.25;;;2.28;77.14
41312;BME280;27061;41.648;24.568;2023-01-28T16:09:26;85276.66;;;2.46;77.58
41312;BME280;27061;41.648;24.568;2023-01-28T16:12:05;85275.97;;;2.43;78.04
41312;BME280;27061;41.648;24.568;2023-01-28T16:14:43;85304.06;;;2.58;77.73
41312;BME280;27061;41.648;24.568;2023-01-28T16:17:16;85296.53;;;2.58;76.97
41312;BME280;27061;41.648;24.568;2023-01-28T16:19:50;85250.53;;;2.10;76.80
41312;BME280;27061;41.648;24.568;2023-01-28T16:24:53;85309.50;;;2.54;76.13
41312;BME280;27061;41.648;24.568;2023-01-28T16:27:25;85258.72;;;2.12;75.85
41312;BME280;27061;41.648;24.568;2023-01-28T16:29:53;85282.00;;;2.26;75.65
41312;BME280;27061;41.648;24.568;2023-01-28T16:35:02;85260.69;;;2.02;76.19
41312;BME280;27061;41.648;24.568;2023-01-28T16:37:30;85284.03;;;2.21;76.93
41312;BME280;27061;41.648;24.568;2023-01-28T16:39:57;85290.19;;;2.19;76.89
41312;BME280;27061;41.648;24.568;2023-01-28T16:42:27;85309.31;;;2.26;77.46
41312;BME280;27061;41.648;24.568;2023-01-28T16:44:54;85325.81;;;2.42;77.19
41312;BME280;27061;41.648;24.568;2023-01-28T16:47:21;85329.91;;;2.41;76.89
41312;BME280;27061;41.648;24.568;2023-01-28T16:49:48;85280.47;;;2.02;77.26
41312;BME280;27061;41.648;24.568;2023-01-28T16:52:16;85331.94;;;2.38;77.92
41312;BME280;27061;41.648;24.568;2023-01-28T16:54:44;85333.97;;;2.36;77.96
41312;BME280;27061;41.648;24.568;2023-01-28T16:57:16;85338.06;;;2.37;78.23
41312;BME280;27061;41.648;24.568;2023-01-28T16:59:44;85336.69;;;2.36;77.54
41312;BME280;27061;41.648;24.568;2023-01-28T17:02:13;85316.09;;;2.16;76.24
41312;BME280;27061;41.648;24.568;2023-01-28T17:04:40;85279.69;;;1.83;76.38
41312;BME280;27061;41.648;24.568;2023-01-28T17:07:08;85303.66;;;1.95;75.89